createdAt,value
2023-03-29T00:02:30.448Z,62.40
2023-03-29T00:04:57.959Z,62.37
2023-03-29T00:07:26.165Z,62.21
2023-03-29T00:09:53.258Z,62.52
2023-03-29T00:12:20.114Z,62.85
2023-03-29T00:14:47.311Z,62.80
2023-03-29T00:17:14.134Z,63.07
2023-03-29T00:19:43.029Z,63.11
2023-03-29T00:22:09.874Z,62.96
2023-03-29T00:24:36.856Z,62.93
2023-03-29T00:27:03.665Z,63.03
2023-03-29T00:29:30.773Z,62.94
2023-03-29T00:31:57.603Z,62.80
2023-03-29T00:34:25.142Z,62.99
2023-03-29T00:36:53.227Z,62.75
2023-03-29T00:39:20.822Z,63.01
2023-03-29T00:41:48.502Z,62.94
2023-03-29T00:44:34.414Z,62.90
2023-03-29T00:47:01.280Z,62.94
2023-03-29T00:49:28.087Z,62.76
2023-03-29T00:51:55.343Z,62.83
2023-03-29T00:54:22.186Z,62.61
2023-03-29T00:56:51.199Z,63.05
2023-03-29T00:59:24.081Z,62.90
2023-03-29T01:01:54.466Z,62.43
2023-03-29T01:04:31.873Z,63.16
2023-03-29T01:07:13.607Z,62.49
2023-03-29T01:09:43.255Z,63.04
2023-03-29T01:12:19.569Z,63.11
2023-03-29T01:14:50.681Z,63.19
2023-03-29T01:17:21.891Z,63.19
2023-03-29T01:19:53.904Z,62.95
2023-03-29T01:22:22.570Z,62.88
2023-03-29T01:24:58.463Z,62.76
2023-03-29T01:27:44.033Z,62.89
2023-03-29T01:30:14.915Z,62.42
2023-03-29T01:32:44.727Z,62.54
2023-03-29T01:35:21.228Z,62.47
2023-03-29T01:37:56.920Z,62.45
2023-03-29T01:40:24.096Z,63.25
2023-03-29T01:43:07.430Z,62.44
2023-03-29T01:46:01.580Z,63.02
2023-03-29T01:48:31.451Z,62.89
2023-03-29T01:51:05.175Z,63.17
2023-03-29T01:53:45.662Z,63.15
2023-03-29T01:56:21.850Z,62.53
2023-03-29T01:58:52.781Z,62.54
2023-03-29T02:01:23.214Z,62.72
2023-03-29T02:03:51.378Z,62.52
2023-03-29T02:06:20.855Z,62.91
2023-03-29T02:08:48.478Z,62.60
2023-03-29T02:11:15.799Z,63.18
2023-03-29T02:13:42.855Z,62.82
2023-03-29T02:16:12.326Z,62.70
2023-03-29T02:18:41.555Z,62.62
2023-03-29T02:21:09.122Z,63.42
2023-03-29T02:23:45.455Z,63.40
2023-03-29T02:26:14.563Z,63.25
2023-03-29T02:28:42.458Z,63.03
2023-03-29T02:31:21.520Z,63.04
2023-03-29T02:34:02.399Z,63.29
2023-03-29T02:36:43.352Z,62.53
2023-03-29T02:39:14.071Z,63.43
2023-03-29T02:41:42.396Z,63.13
2023-03-29T02:44:11.755Z,62.80
2023-03-29T02:46:38.656Z,62.74
2023-03-29T02:49:05.960Z,63.00
2023-03-29T02:51:34.122Z,62.67
2023-03-29T02:54:15.759Z,62.63
2023-03-29T02:56:43.804Z,62.63
2023-03-29T02:59:12.350Z,62.72
2023-03-29T03:01:44.262Z,62.88
2023-03-29T03:04:12.367Z,62.70
2023-03-29T03:06:39.297Z,62.93
2023-03-29T03:09:07.019Z,62.58
2023-03-29T03:11:36.979Z,63.23
2023-03-29T03:14:04.278Z,62.75
2023-03-29T03:16:31.602Z,63.00
2023-03-29T03:18:59.137Z,63.42
2023-03-29T03:21:28.388Z,63.07
2023-03-29T03:23:55.804Z,62.88
2023-03-29T03:26:23.379Z,62.74
2023-03-29T03:28:50.219Z,62.73
2023-03-29T03:31:37.385Z,62.78
2023-03-29T03:34:14.497Z,63.34
2023-03-29T03:36:51.790Z,62.83
2023-03-29T03:39:18.639Z,63.39
2023-03-29T03:41:45.686Z,63.17
2023-03-29T03:44:13.334Z,62.68
2023-03-29T03:46:41.682Z,63.28
2023-03-29T03:49:08.547Z,63.37
2023-03-29T03:51:39.333Z,62.84
2023-03-29T03:54:06.972Z,62.91
2023-03-29T03:56:34.419Z,62.95
2023-03-29T03:59:04.106Z,62.82
2023-03-29T04:01:37.974Z,62.83
2023-03-29T04:04:14.737Z,63.27
2023-03-29T04:06:52.974Z,62.71
2023-03-29T04:09:25.864Z,63.17
2023-03-29T04:12:07.377Z,63.02
2023-03-29T04:14:34.381Z,63.20
2023-03-29T04:17:05.890Z,63.09
2023-03-29T04:19:51.477Z,62.62
2023-03-29T04:22:18.524Z,62.56
2023-03-29T04:24:45.832Z,62.92
2023-03-29T04:27:36.418Z,62.47
2023-03-29T04:30:09.714Z,62.59
2023-03-29T04:33:08.969Z,62.54
2023-03-29T04:35:37.240Z,62.91
2023-03-29T04:38:04.929Z,62.91
2023-03-29T04:40:33.574Z,62.80
2023-03-29T04:43:23.811Z,62.80
2023-03-29T04:45:59.860Z,62.67
2023-03-29T04:48:42.085Z,62.50
2023-03-29T04:51:09.035Z,62.99
2023-03-29T04:53:35.909Z,62.87
2023-03-29T04:56:03.255Z,62.50
2023-03-29T04:58:51.052Z,62.90
2023-03-29T05:01:18.250Z,62.89
2023-03-29T05:03:53.463Z,62.79
2023-03-29T05:06:29.287Z,62.55
2023-03-29T05:08:56.331Z,62.45
2023-03-29T05:11:30.632Z,62.86
2023-03-29T05:14:02.397Z,62.67
2023-03-29T05:16:32.276Z,62.57
2023-03-29T05:19:00.327Z,62.59
2023-03-29T05:21:28.564Z,62.66
2023-03-29T05:23:58.862Z,62.53
2023-03-29T05:26:47.731Z,62.34
2023-03-29T05:29:14.649Z,62.66
2023-03-29T05:31:44.857Z,62.44
2023-03-29T05:34:14.254Z,62.37
2023-03-29T05:36:46.494Z,62.54
2023-03-29T05:39:14.165Z,62.54
2023-03-29T05:41:41.778Z,62.46
2023-03-29T05:44:37.838Z,62.42
2023-03-29T05:47:13.655Z,62.55
2023-03-29T05:49:40.956Z,62.26
2023-03-29T05:52:17.176Z,62.33
2023-03-29T05:54:44.299Z,62.38
2023-03-29T05:57:12.731Z,62.10
2023-03-29T05:59:40.424Z,62.02
2023-03-29T06:02:07.358Z,61.72
2023-03-29T06:04:40.081Z,62.28
2023-03-29T06:07:27.050Z,62.29
2023-03-29T06:10:20.587Z,62.19
2023-03-29T06:12:52.014Z,61.92
2023-03-29T06:15:23.366Z,61.79
2023-03-29T06:17:54.257Z,62.15
2023-03-29T06:20:21.712Z,61.81
2023-03-29T06:22:54.106Z,62.19
2023-03-29T06:25:22.761Z,62.11
2023-03-29T06:27:50.673Z,62.06
2023-03-29T06:30:19.774Z,62.36
2023-03-29T06:32:50.815Z,62.08
2023-03-29T06:35:31.900Z,61.98
2023-03-29T06:38:06.108Z,62.30
2023-03-29T06:40:52.804Z,62.03
2023-03-29T06:43:22.210Z,61.97
2023-03-29T06:46:11.805Z,62.10
2023-03-29T06:48:53.486Z,61.61
2023-03-29T06:51:23.493Z,61.70
2023-03-29T06:53:51.061Z,61.99
2023-03-29T06:56:18.688Z,62.14
2023-03-29T06:58:48.711Z,62.51
2023-03-29T07:01:34.912Z,62.17
2023-03-29T07:04:24.902Z,61.73
2023-03-29T07:07:27.729Z,62.21
2023-03-29T07:10:12.426Z,62.18
2023-03-29T07:13:02.481Z,62.36
2023-03-29T07:15:30.111Z,62.61
2023-03-29T07:18:12.669Z,62.61
2023-03-29T07:20:40.642Z,62.06
2023-03-29T07:23:09.649Z,62.13
2023-03-29T07:25:37.283Z,62.84
2023-03-29T07:28:04.941Z,62.22
2023-03-29T07:30:32.624Z,62.66
2023-03-29T07:33:14.560Z,62.29
2023-03-29T07:35:55.464Z,62.18
2023-03-29T07:38:22.911Z,62.48
2023-03-29T07:40:58.896Z,62.43
2023-03-29T07:44:08.911Z,62.21
2023-03-29T07:47:14.472Z,62.66
2023-03-29T07:49:42.419Z,62.70
2023-03-29T07:52:09.441Z,62.49
2023-03-29T07:54:36.301Z,62.36
2023-03-29T07:57:32.745Z,62.65
2023-03-29T08:00:00.195Z,62.19
2023-03-29T08:02:39.332Z,62.00
2023-03-29T08:05:11.554Z,62.51
2023-03-29T08:07:57.908Z,62.58
2023-03-29T08:11:03.369Z,62.26
2023-03-29T08:13:43.498Z,62.63
2023-03-29T08:16:28.933Z,62.44
2023-03-29T08:19:04.308Z,62.81
2023-03-29T08:21:48.648Z,62.31
2023-03-29T08:24:17.581Z,62.51
2023-03-29T08:26:49.527Z,62.22
2023-03-29T08:29:19.216Z,62.37
2023-03-29T08:31:46.154Z,62.29
2023-03-29T08:34:13.300Z,61.95
2023-03-29T08:36:56.031Z,62.47
2023-03-29T08:39:29.672Z,62.31
2023-03-29T08:42:30.970Z,61.95
2023-03-29T08:45:13.623Z,62.40
2023-03-29T08:47:46.881Z,62.01
2023-03-29T08:50:14.513Z,62.27
2023-03-29T08:52:44.976Z,62.81
2023-03-29T08:55:30.272Z,62.42
2023-03-29T08:58:19.530Z,62.49
2023-03-29T09:00:58.317Z,62.50
2023-03-29T09:03:29.679Z,62.30
2023-03-29T09:06:03.450Z,62.38
2023-03-29T09:08:31.694Z,62.62
2023-03-29T09:11:10.722Z,62.74
2023-03-29T09:13:45.258Z,62.52
2023-03-29T09:16:31.358Z,62.50
2023-03-29T09:19:11.858Z,62.56
2023-03-29T09:22:05.289Z,61.98
2023-03-29T09:24:32.661Z,62.40
2023-03-29T09:27:05.350Z,62.29
2023-03-29T09:29:35.439Z,62.48
2023-03-29T09:32:06.791Z,62.72
2023-03-29T09:34:41.235Z,62.45
2023-03-29T09:37:23.079Z,62.50
2023-03-29T09:39:53.227Z,62.65
2023-03-29T09:42:26.082Z,62.72
2023-03-29T09:44:54.496Z,62.63
2023-03-29T09:47:34.368Z,62.96
2023-03-29T09:50:14.118Z,63.13
2023-03-29T09:52:50.420Z,63.16
2023-03-29T09:55:25.237Z,63.21
2023-03-29T09:58:11.529Z,62.69
2023-03-29T10:00:41.141Z,62.89
2023-03-29T10:03:10.139Z,62.77
2023-03-29T10:05:49.645Z,63.10
2023-03-29T10:08:36.152Z,63.05
2023-03-29T10:11:08.244Z,62.91
2023-03-29T10:13:37.201Z,62.86
2023-03-29T10:16:18.423Z,62.76
2023-03-29T10:18:45.361Z,63.22
2023-03-29T10:21:15.596Z,63.04
2023-03-29T10:23:44.017Z,63.20
2023-03-29T10:26:16.810Z,63.58
2023-03-29T10:28:44.813Z,63.32
2023-03-29T10:31:17.972Z,63.32
2023-03-29T10:33:50.900Z,63.08
2023-03-29T10:36:18.295Z,63.03
2023-03-29T10:38:45.246Z,63.15
2023-03-29T10:41:12.918Z,63.59
2023-03-29T10:43:43.542Z,63.57
2023-03-29T10:46:15.877Z,64.02
2023-03-29T10:48:46.467Z,63.80
2023-03-29T10:51:17.374Z,63.66
2023-03-29T10:53:44.240Z,63.79
2023-03-29T10:56:14.164Z,63.33
2023-03-29T10:59:10.308Z,63.84
2023-03-29T11:01:44.705Z,63.76
2023-03-29T11:04:30.576Z,63.63
2023-03-29T11:07:16.590Z,63.89
2023-03-29T11:09:43.563Z,63.81
2023-03-29T11:12:17.622Z,63.85
2023-03-29T11:14:44.501Z,63.83
2023-03-29T11:17:43.702Z,63.71
2023-03-29T11:20:16.433Z,63.58
2023-03-29T11:22:56.140Z,63.63
2023-03-29T11:25:29.107Z,64.00
2023-03-29T11:27:56.603Z,63.84
2023-03-29T11:30:32.296Z,63.92
2023-03-29T11:33:05.411Z,63.91
2023-03-29T11:35:38.196Z,63.93
2023-03-29T11:38:21.524Z,63.93
2023-03-29T11:41:13.717Z,64.03
2023-03-29T11:43:47.928Z,63.97
2023-03-29T11:46:30.714Z,64.02
2023-03-29T11:49:04.570Z,63.88
2023-03-29T11:51:37.957Z,64.01
2023-03-29T11:54:13.864Z,64.07
2023-03-29T11:56:44.137Z,64.42
2023-03-29T11:59:21.429Z,64.22
2023-03-29T12:02:08.569Z,63.86
2023-03-29T12:04:39.588Z,64.08
2023-03-29T12:07:29.511Z,64.33
2023-03-29T12:10:05.361Z,64.07
2023-03-29T12:12:50.672Z,64.15
2023-03-29T12:15:20.496Z,64.04
2023-03-29T12:17:47.399Z,64.37
2023-03-29T12:20:27.146Z,64.32
2023-03-29T12:22:57.186Z,64.25
2023-03-29T12:25:26.702Z,64.25
2023-03-29T12:28:12.042Z,64.07
2023-03-29T12:30:44.653Z,64.43
2023-03-29T12:33:23.818Z,64.46
2023-03-29T12:36:09.281Z,64.43
2023-03-29T12:39:18.991Z,64.70
2023-03-29T12:42:24.247Z,64.63
2023-03-29T12:45:21.892Z,64.48
2023-03-29T12:47:51.499Z,64.54
2023-03-29T12:50:32.879Z,64.67
2023-03-29T12:53:04.359Z,64.61
2023-03-29T12:55:33.657Z,64.26
2023-03-29T12:58:02.405Z,64.44
2023-03-29T13:00:42.405Z,64.64
2023-03-29T13:03:28.338Z,64.44
2023-03-29T13:06:06.255Z,64.42
2023-03-29T13:08:35.163Z,64.59
2023-03-29T13:11:02.484Z,64.58
2023-03-29T13:13:36.304Z,64.38
2023-03-29T13:16:14.409Z,64.30
2023-03-29T13:19:00.410Z,64.70
2023-03-29T13:21:46.525Z,64.71
2023-03-29T13:24:27.198Z,64.49
2023-03-29T13:27:03.112Z,64.96
2023-03-29T13:29:38.189Z,65.27
2023-03-29T13:32:26.039Z,65.05
2023-03-29T13:34:58.486Z,65.41
2023-03-29T13:37:25.339Z,65.66
2023-03-29T13:39:53.562Z,65.60
2023-03-29T13:42:25.466Z,65.35
2023-03-29T13:44:53.990Z,65.30
2023-03-29T13:47:32.697Z,65.38
2023-03-29T13:50:01.658Z,65.49
2023-03-29T13:52:28.494Z,65.42
2023-03-29T13:54:55.558Z,65.22
2023-03-29T13:57:32.362Z,65.46
2023-03-29T14:00:15.469Z,65.25
2023-03-29T14:02:56.466Z,65.55
2023-03-29T14:05:25.420Z,65.32
2023-03-29T14:07:53.592Z,65.31
2023-03-29T14:10:24.520Z,65.57
2023-03-29T14:12:53.226Z,65.76
2023-03-29T14:15:24.757Z,65.56
2023-03-29T14:18:00.258Z,65.53
2023-03-29T14:20:27.868Z,65.42
2023-03-29T14:22:54.924Z,65.61
2023-03-29T14:25:23.141Z,65.34
2023-03-29T14:27:50.068Z,65.76
2023-03-29T14:30:21.138Z,65.52
2023-03-29T14:32:48.548Z,65.49
2023-03-29T14:35:15.564Z,65.61
2023-03-29T14:37:42.973Z,65.69
2023-03-29T14:40:19.299Z,65.74
2023-03-29T14:43:15.992Z,65.36
2023-03-29T14:45:43.523Z,65.64
2023-03-29T14:48:12.485Z,65.57
2023-03-29T14:50:39.838Z,65.71
2023-03-29T14:53:06.961Z,65.70
2023-03-29T14:55:34.352Z,65.73
2023-03-29T14:58:01.397Z,65.81
2023-03-29T15:00:30.308Z,65.88
2023-03-29T15:03:02.120Z,65.83
2023-03-29T15:05:39.848Z,65.92
2023-03-29T15:08:10.000Z,65.64
2023-03-29T15:10:38.333Z,65.83
2023-03-29T15:13:06.812Z,66.04
2023-03-29T15:15:35.888Z,66.39
2023-03-29T15:18:04.460Z,66.15
2023-03-29T15:20:36.781Z,65.43
2023-03-29T15:23:15.996Z,66.10
2023-03-29T15:25:54.944Z,65.92
2023-03-29T15:28:44.771Z,65.81
2023-03-29T15:31:13.458Z,66.04
2023-03-29T15:33:41.869Z,65.94
2023-03-29T15:36:09.653Z,66.00
2023-03-29T15:38:43.882Z,65.82
2023-03-29T15:41:12.382Z,65.93
2023-03-29T15:43:39.314Z,65.78
2023-03-29T15:46:06.809Z,66.27
2023-03-29T15:48:34.214Z,66.08
2023-03-29T15:51:06.222Z,66.15
2023-03-29T15:53:33.723Z,66.31
2023-03-29T15:56:02.532Z,66.10
2023-03-29T15:58:33.599Z,66.16
2023-03-29T16:01:11.562Z,66.36
2023-03-29T16:03:39.372Z,66.18
2023-03-29T16:06:06.487Z,66.15
2023-03-29T16:08:33.238Z,66.18
2023-03-29T16:11:00.183Z,65.81
2023-03-29T16:13:27.008Z,66.25
2023-03-29T16:15:53.991Z,66.17
2023-03-29T16:18:21.323Z,65.98
2023-03-29T16:20:48.199Z,65.97
2023-03-29T16:23:15.020Z,65.92
2023-03-29T16:25:42.955Z,66.07
2023-03-29T16:28:10.291Z,65.95
2023-03-29T16:30:37.653Z,66.18
2023-03-29T16:33:08.691Z,66.31
2023-03-29T16:35:37.396Z,66.22
2023-03-29T16:38:04.477Z,66.17
2023-03-29T16:40:31.721Z,66.15
2023-03-29T16:42:58.620Z,66.04
2023-03-29T16:45:26.009Z,65.95
2023-03-29T16:47:52.942Z,66.39
2023-03-29T16:50:20.132Z,66.38
2023-03-29T16:52:48.603Z,66.20
2023-03-29T16:55:15.831Z,66.09
2023-03-29T16:57:42.740Z,66.30
2023-03-29T17:00:16.681Z,66.35
2023-03-29T17:02:44.177Z,66.22
2023-03-29T17:05:12.018Z,65.90
2023-03-29T17:07:39.718Z,65.82
2023-03-29T17:10:10.843Z,66.30
2023-03-29T17:12:37.928Z,66.12
2023-03-29T17:15:05.415Z,66.20
2023-03-29T17:17:32.486Z,66.27
2023-03-29T17:19:59.813Z,66.20
2023-03-29T17:22:26.946Z,66.28
2023-03-29T17:24:53.780Z,66.11
2023-03-29T17:27:21.317Z,66.17
2023-03-29T17:29:48.353Z,66.52
2023-03-29T17:32:15.126Z,66.23
2023-03-29T17:34:42.317Z,66.34
2023-03-29T17:37:09.765Z,66.37
2023-03-29T17:39:37.938Z,66.31
2023-03-29T17:42:05.508Z,66.30
2023-03-29T17:44:33.502Z,66.54
2023-03-29T17:47:01.220Z,66.62
2023-03-29T17:49:28.228Z,66.27
2023-03-29T17:51:55.257Z,66.48
2023-03-29T17:54:22.297Z,66.23
2023-03-29T17:56:49.248Z,66.60
2023-03-29T17:59:16.403Z,66.52
2023-03-29T18:01:43.539Z,66.22
2023-03-29T18:04:10.669Z,66.43
2023-03-29T18:06:37.535Z,66.28
2023-03-29T18:09:04.751Z,66.41
2023-03-29T18:11:31.910Z,66.40
2023-03-29T18:13:59.458Z,66.29
2023-03-29T18:16:26.739Z,66.43
2023-03-29T18:18:53.952Z,66.49
2023-03-29T18:21:21.090Z,66.39
2023-03-29T18:23:49.362Z,66.71
2023-03-29T18:26:16.934Z,66.63
2023-03-29T18:28:47.394Z,66.58
2023-03-29T18:31:15.013Z,66.62
2023-03-29T18:33:41.938Z,66.61
2023-03-29T18:36:12.697Z,66.43
2023-03-29T18:38:40.751Z,66.47
2023-03-29T18:41:08.762Z,66.75
2023-03-29T18:43:36.098Z,66.72
2023-03-29T18:46:03.407Z,66.82
2023-03-29T18:48:30.707Z,66.57
2023-03-29T18:50:57.962Z,66.59
2023-03-29T18:53:25.065Z,66.62
2023-03-29T18:55:51.910Z,66.51
2023-03-29T18:58:20.451Z,66.49
2023-03-29T19:00:47.554Z,66.52
2023-03-29T19:03:14.842Z,66.38
2023-03-29T19:05:41.744Z,66.55
2023-03-29T19:08:09.210Z,66.81
2023-03-29T19:10:36.785Z,66.51
2023-03-29T19:13:04.399Z,66.54
2023-03-29T19:15:31.681Z,66.82
2023-03-29T19:18:00.266Z,66.63
2023-03-29T19:20:27.558Z,66.92
2023-03-29T19:22:54.420Z,66.67
2023-03-29T19:25:21.227Z,66.88
2023-03-29T19:27:48.080Z,66.67
2023-03-29T19:30:15.330Z,66.81
2023-03-29T19:32:42.196Z,66.66
2023-03-29T19:35:09.763Z,66.94
2023-03-29T19:37:36.590Z,66.78
2023-03-29T19:40:06.655Z,66.58
2023-03-29T19:42:42.772Z,66.85
2023-03-29T19:45:10.202Z,66.58
2023-03-29T19:47:37.312Z,66.82
2023-03-29T19:50:05.123Z,66.78
2023-03-29T19:52:32.984Z,66.57
2023-03-29T19:55:00.000Z,66.71
2023-03-29T19:57:26.883Z,66.80
2023-03-29T19:59:54.114Z,66.77
2023-03-29T20:02:29.148Z,66.84
2023-03-29T20:04:58.900Z,67.02
2023-03-29T20:07:25.953Z,66.85
2023-03-29T20:09:52.805Z,66.88
2023-03-29T20:12:19.576Z,66.88
2023-03-29T20:14:46.545Z,66.87
2023-03-29T20:17:13.608Z,66.78
2023-03-29T20:19:44.426Z,66.70
2023-03-29T20:22:11.703Z,66.77
2023-03-29T20:24:38.709Z,66.84
2023-03-29T20:27:05.568Z,67.04
2023-03-29T20:29:33.318Z,66.61
2023-03-29T20:32:01.467Z,66.86
2023-03-29T20:34:28.392Z,66.86
2023-03-29T20:37:00.906Z,66.83
2023-03-29T20:39:28.610Z,66.95
2023-03-29T20:41:55.647Z,66.62
2023-03-29T20:44:26.295Z,66.63
2023-03-29T20:47:06.859Z,66.86
2023-03-29T20:49:37.661Z,66.64
2023-03-29T20:52:10.741Z,66.71
2023-03-29T20:54:37.603Z,66.54
2023-03-29T20:57:05.216Z,66.87
2023-03-29T20:59:32.671Z,66.57
2023-03-29T21:02:00.365Z,66.83
2023-03-29T21:04:29.834Z,66.72
2023-03-29T21:06:57.168Z,66.78
2023-03-29T21:09:24.029Z,66.92
2023-03-29T21:11:51.603Z,66.92
2023-03-29T21:14:19.681Z,66.65
2023-03-29T21:16:47.463Z,66.96
2023-03-29T21:19:15.049Z,67.03
2023-03-29T21:21:42.894Z,67.01
2023-03-29T21:24:10.864Z,66.89
2023-03-29T21:26:37.751Z,66.84
2023-03-29T21:29:04.670Z,66.95
2023-03-29T21:31:31.755Z,67.20
2023-03-29T21:33:59.385Z,66.93
2023-03-29T21:36:26.904Z,67.23
2023-03-29T21:38:54.040Z,66.87
2023-03-29T21:41:25.016Z,66.83
2023-03-29T21:43:52.878Z,66.72
2023-03-29T21:46:19.726Z,67.00
2023-03-29T21:48:52.349Z,67.10
2023-03-29T21:51:27.854Z,66.92
2023-03-29T21:53:54.712Z,67.02
2023-03-29T21:56:25.339Z,67.11
2023-03-29T21:58:57.653Z,67.17
2023-03-29T22:01:24.540Z,67.07
2023-03-29T22:03:51.549Z,66.99
2023-03-29T22:06:18.295Z,67.07
2023-03-29T22:08:46.896Z,67.08
2023-03-29T22:11:15.705Z,67.05
2023-03-29T22:13:43.454Z,67.05
2023-03-29T22:16:16.863Z,66.89
2023-03-29T22:18:44.635Z,67.09
2023-03-29T22:21:14.590Z,67.14
2023-03-29T22:23:42.357Z,66.75
2023-03-29T22:26:09.805Z,66.93
2023-03-29T22:28:36.992Z,66.84
2023-03-29T22:31:05.264Z,66.93
2023-03-29T22:33:33.262Z,66.84
2023-03-29T22:36:00.722Z,67.05
2023-03-29T22:38:28.513Z,66.98
2023-03-29T22:40:55.978Z,67.22
2023-03-29T22:43:22.847Z,66.89
2023-03-29T22:45:50.032Z,67.00
2023-03-29T22:48:17.056Z,67.10
2023-03-29T22:50:46.509Z,67.06
2023-03-29T22:53:13.838Z,67.06
2023-03-29T22:55:41.519Z,67.01
2023-03-29T22:58:08.825Z,67.11
2023-03-29T23:00:35.615Z,67.19
2023-03-29T23:03:02.553Z,67.05
2023-03-29T23:05:29.461Z,66.93
2023-03-29T23:07:56.243Z,66.91
2023-03-29T23:10:28.924Z,66.98
2023-03-29T23:13:12.916Z,67.37
2023-03-29T23:15:48.084Z,66.99
2023-03-29T23:18:18.382Z,67.07
2023-03-29T23:20:47.277Z,67.08
2023-03-29T23:23:15.444Z,67.08
2023-03-29T23:25:43.151Z,67.09
2023-03-29T23:28:09.990Z,67.28
2023-03-29T23:30:37.226Z,67.11
2023-03-29T23:33:04.793Z,67.10
2023-03-29T23:35:31.811Z,66.72
2023-03-29T23:37:58.736Z,67.02
2023-03-29T23:40:26.293Z,67.03
2023-03-29T23:42:59.515Z,67.21
2023-03-29T23:45:29.378Z,67.07
2023-03-29T23:47:57.272Z,67.00
2023-03-29T23:50:24.482Z,67.10
2023-03-29T23:52:51.756Z,67.24
2023-03-29T23:55:19.019Z,67.20
2023-03-29T23:57:46.346Z,67.45
